Time;durP1;ratioP1;P1;durP2;ratioP2;P2;SDS_P1;SDS_P2;PMS_P1;PMS_P2;Temp;Humidity;BMP_temperature;BMP_pressure;BME280_temperature;BME280_humidity;BME280_pressure;Samples;Min_cycle;Max_cycle;Signal;HPM_P1;HPM_P2
2021/07/01 00:02:07;;;;;;;7.45;3.55;;;16.20;99.90;;;;;;5025613;28;20143;-66
2021/07/01 00:04:34;;;;;;;8.38;5.55;;;16.20;99.90;;;;;;5024496;28;20164;-64
2021/07/01 00:07:01;;;;;;;4.85;3.53;;;16.20;99.90;;;;;;5023949;28;20096;-64
2021/07/01 00:09:28;;;;;;;6.45;4.47;;;16.20;99.90;;;;;;5025400;28;20041;-63
2021/07/01 00:11:59;;;;;;;7.30;3.95;;;16.20;99.90;;;;;;5024085;28;20519;-67
2021/07/01 00:14:27;;;;;;;9.07;4.93;;;16.20;99.90;;;;;;5025445;28;20072;-65
2021/07/01 00:16:55;;;;;;;9.52;3.67;;;16.20;99.90;;;;;;5024122;28;20554;-65
2021/07/01 00:19:23;;;;;;;3.90;3.50;;;16.20;99.90;;;;;;5026211;28;20063;-64
2021/07/01 00:21:51;;;;;;;13.65;4.20;;;16.20;99.90;;;;;;5021482;28;20049;-63
2021/07/01 00:24:18;;;;;;;6.60;4.20;;;16.20;99.90;;;;;;5025903;28;20108;-63
2021/07/01 00:26:45;;;;;;;10.13;3.72;;;16.20;99.90;;;;;;5023269;28;20080;-64
2021/07/01 00:29:12;;;;;;;11.27;5.05;;;16.20;99.90;;;;;;5025727;28;20074;-65
2021/07/01 00:31:39;;;;;;;9.55;4.40;;;16.20;99.90;;;;;;5024256;28;20060;-64
2021/07/01 00:34:06;;;;;;;13.88;4.78;;;16.20;99.90;;;;;;5022435;28;20187;-67
2021/07/01 00:36:33;;;;;;;11.10;3.97;;;16.20;99.90;;;;;;5024790;28;20053;-64
2021/07/01 00:39:01;;;;;;;10.18;4.00;;;16.20;99.90;;;;;;5022842;28;20049;-64
2021/07/01 00:41:28;;;;;;;11.00;3.92;;;16.20;99.90;;;;;;5023678;28;20049;-65
2021/07/01 00:43:54;;;;;;;5.72;4.35;;;16.20;99.90;;;;;;5036059;28;20139;-66
2021/07/01 00:46:22;;;;;;;11.75;4.65;;;16.20;99.90;;;;;;5024080;28;20686;-64
2021/07/01 00:48:49;;;;;;;5.03;3.22;;;16.30;99.90;;;;;;5024215;28;20045;-64
2021/07/01 00:51:17;;;;;;;7.32;4.40;;;16.20;99.90;;;;;;5019974;28;20049;-66
2021/07/01 00:53:44;;;;;;;7.25;3.78;;;16.30;99.90;;;;;;5023770;28;20060;-64
2021/07/01 00:56:14;;;;;;;6.80;3.70;;;16.30;99.90;;;;;;5022799;28;20434;-66
2021/07/01 00:58:41;;;;;;;6.38;4.18;;;16.30;99.90;;;;;;5021031;28;20048;-63
2021/07/01 01:01:08;;;;;;;12.48;5.30;;;16.30;99.90;;;;;;5023989;28;20045;-63
2021/07/01 01:03:38;;;;;;;10.15;4.30;;;16.30;99.90;;;;;;5021875;28;20045;-63
2021/07/01 01:06:06;;;;;;;6.55;3.25;;;16.30;99.90;;;;;;5038248;28;20041;-65
2021/07/01 01:08:38;;;;;;;9.10;3.45;;;16.30;99.90;;;;;;5022103;28;20069;-63
2021/07/01 01:11:06;;;;;;;7.10;3.50;;;16.30;99.90;;;;;;5024620;28;20038;-63
2021/07/01 01:13:44;;;;;;;6.00;3.95;;;16.40;99.90;;;;;;5040128;28;20388;-64
2021/07/01 01:16:30;;;;;;;4.93;3.90;;;16.30;99.90;;;;;;5022327;28;20056;-64
2021/07/01 01:18:58;;;;;;;8.48;4.72;;;16.30;99.90;;;;;;5036221;28;20157;-64
2021/07/01 01:21:30;;;;;;;11.93;3.97;;;16.40;99.90;;;;;;5022350;28;20083;-63
2021/07/01 01:24:00;;;;;;;18.80;4.30;;;16.30;99.90;;;;;;5016674;28;20340;-66
2021/07/01 01:26:27;;;;;;;;;;;16.40;99.90;;;;;;5023086;28;20068;-65
2021/07/01 01:28:55;;;;;;;5.38;2.65;;;16.40;99.90;;;;;;5020188;28;19928;-63
2021/07/01 01:31:23;;;;;;;9.40;4.35;;;16.40;99.90;;;;;;5025219;28;20415;-63
2021/07/01 01:33:52;;;;;;;9.60;3.72;;;16.30;99.90;;;;;;5020414;28;20095;-65
2021/07/01 01:36:19;;;;;;;6.55;3.78;;;16.30;99.90;;;;;;5040291;28;20475;-65
2021/07/01 01:38:50;;;;;;;4.65;3.55;;;16.30;99.90;;;;;;5037372;28;20141;-66
2021/07/01 01:41:39;;;;;;;4.80;4.28;;;16.30;99.90;;;;;;5021866;28;20048;-66
2021/07/01 01:44:07;;;;;;;4.75;3.53;;;16.30;99.90;;;;;;5036318;28;20096;-64
2021/07/01 01:46:38;;;;;;;8.75;2.90;;;16.30;99.90;;;;;;5023361;28;20127;-64
2021/07/01 01:49:08;;;;;;;11.38;4.05;;;16.30;99.90;;;;;;5024498;28;20132;-64
2021/07/01 01:51:37;;;;;;;4.32;3.13;;;16.30;99.90;;;;;;5018665;28;20466;-64
2021/07/01 01:54:05;;;;;;;11.27;3.03;;;16.30;99.90;;;;;;5021895;28;20033;-63
2021/07/01 01:56:45;;;;;;;8.93;3.63;;;16.30;99.90;;;;;;5021540;28;20411;-63
2021/07/01 01:59:35;;;;;;;8.07;3.60;;;16.30;99.90;;;;;;5018922;28;20631;-63
2021/07/01 02:02:20;;;;;;;6.15;2.83;;;16.30;99.90;;;;;;5021503;28;20107;-65
2021/07/01 02:05:09;;;;;;;10.80;4.30;;;16.30;99.90;;;;;;5023819;28;20034;-66
2021/07/01 02:07:37;;;;;;;7.75;3.40;;;16.20;99.90;;;;;;5052791;28;20048;-67
2021/07/01 02:10:09;;;;;;;9.20;3.47;;;16.20;99.90;;;;;;5021270;28;20045;-67
2021/07/01 02:12:37;;;;;;;7.00;3.17;;;16.20;99.90;;;;;;5017602;28;20046;-66
2021/07/01 02:15:10;;;;;;;7.28;3.85;;;16.20;99.90;;;;;;5020820;28;20670;-65
2021/07/01 02:17:53;;;;;;;7.70;3.90;;;16.20;99.90;;;;;;5033701;28;20144;-65
2021/07/01 02:20:24;;;;;;;4.75;2.53;;;16.10;99.90;;;;;;5038498;28;20065;-63
2021/07/01 02:22:52;;;;;;;9.70;4.38;;;16.20;99.90;;;;;;5018567;28;20084;-64
2021/07/01 02:25:27;;;;;;;9.18;3.72;;;16.20;99.90;;;;;;5018606;28;20121;-67
2021/07/01 02:28:08;;;;;;;6.63;2.88;;;16.20;99.90;;;;;;5018132;28;20055;-64
2021/07/01 02:30:36;;;;;;;6.78;4.13;;;16.20;99.90;;;;;;5038084;28;20326;-65
2021/07/01 02:33:04;;;;;;;5.53;3.17;;;16.20;99.90;;;;;;5020770;28;20581;-65
2021/07/01 02:35:33;;;;;;;8.45;5.28;;;16.20;99.90;;;;;;5019643;28;20554;-64
2021/07/01 02:38:35;;;;;;;6.60;3.05;;;16.20;99.90;;;;;;4958153;28;20047;-64
2021/07/01 02:41:10;;;;;;;13.77;4.10;;;16.30;99.90;;;;;;5011529;28;20067;-63
2021/07/01 02:43:41;;;;;;;9.35;3.95;;;16.30;99.90;;;;;;5040181;28;20044;-64
2021/07/01 02:46:27;;;;;;;7.20;3.47;;;16.30;99.90;;;;;;5020758;28;20121;-66
2021/07/01 02:48:55;;;;;;;10.00;4.38;;;16.30;99.90;;;;;;5022937;28;20103;-64
2021/07/01 02:51:22;;;;;;;7.05;4.18;;;16.30;99.90;;;;;;5032624;28;20057;-65
2021/07/01 02:53:53;;;;;;;6.65;3.30;;;16.40;99.90;;;;;;5020931;28;20431;-65
2021/07/01 02:56:24;;;;;;;5.32;2.75;;;16.40;99.90;;;;;;5019880;28;20362;-63
2021/07/01 02:58:52;;;;;;;8.75;3.55;;;16.40;99.90;;;;;;5036732;28;20033;-65
2021/07/01 03:01:51;;;;;;;4.67;3.70;;;16.40;99.90;;;;;;4997953;28;20088;-64
2021/07/01 03:04:27;;;;;;;8.63;3.47;;;16.40;99.90;;;;;;5020978;28;20068;-63
2021/07/01 03:06:54;;;;;;;4.68;2.85;;;16.40;99.90;;;;;;5036068;28;20041;-65
2021/07/01 03:09:21;;;;;;;5.65;3.53;;;16.40;99.90;;;;;;5019173;28;20172;-65
2021/07/01 03:11:48;;;;;;;9.40;3.63;;;16.40;99.90;;;;;;5019569;28;20049;-64
2021/07/01 03:14:16;;;;;;;5.57;3.53;;;16.50;99.90;;;;;;5035453;28;20103;-64
2021/07/01 03:16:43;;;;;;;8.27;3.63;;;16.50;99.90;;;;;;5021533;28;20172;-64
2021/07/01 03:19:11;;;;;;;5.97;3.47;;;16.50;99.90;;;;;;5034908;28;20069;-63
2021/07/01 03:22:01;;;;;;;5.53;2.55;;;16.50;99.90;;;;;;5009737;28;20049;-64
2021/07/01 03:24:29;;;;;;;10.88;3.10;;;16.50;99.90;;;;;;5019992;28;20029;-63
2021/07/01 03:26:59;;;;;;;11.70;3.75;;;16.60;99.90;;;;;;5039313;28;20044;-63
2021/07/01 03:29:27;;;;;;;10.02;4.43;;;16.50;99.90;;;;;;5018221;28;20041;-65
2021/07/01 03:31:54;;;;;;;12.07;3.75;;;16.60;99.90;;;;;;5016495;28;20041;-64
2021/07/01 03:34:21;;;;;;;8.75;3.97;;;16.50;99.90;;;;;;5021550;28;20076;-67
2021/07/01 03:36:49;;;;;;;8.82;4.00;;;16.50;99.90;;;;;;5035054;28;20068;-64
2021/07/01 03:39:34;;;;;;;10.95;5.65;;;16.50;99.90;;;;;;5022151;28;20057;-63
2021/07/01 03:42:10;;;;;;;7.57;3.33;;;16.50;99.90;;;;;;5018870;28;20049;-63
2021/07/01 03:44:38;;;;;;;9.48;3.58;;;16.50;99.90;;;;;;5020826;28;20038;-63
2021/07/01 03:47:10;;;;;;;6.70;4.97;;;16.50;99.90;;;;;;5020790;28;20075;-67
2021/07/01 03:49:37;;;;;;;6.55;4.25;;;16.60;99.90;;;;;;5040036;28;20053;-65
2021/07/01 03:52:23;;;;;;;9.25;4.40;;;16.50;99.90;;;;;;5019654;28;20191;-63
2021/07/01 03:54:56;;;;;;;9.55;3.92;;;16.60;99.90;;;;;;5020753;28;20170;-64
2021/07/01 03:57:23;;;;;;;10.10;5.07;;;16.60;99.90;;;;;;5023151;28;20049;-65
2021/07/01 03:59:51;;;;;;;5.25;3.35;;;16.60;99.90;;;;;;5015748;28;20038;-64
2021/07/01 04:02:36;;;;;;;7.65;3.90;;;16.60;99.90;;;;;;5020321;28;20430;-64
2021/07/01 04:05:12;;;;;;;8.02;3.78;;;16.60;99.90;;;;;;5018290;28;20462;-65
2021/07/01 04:07:42;;;;;;;7.80;3.17;;;16.60;99.90;;;;;;5018775;28;20338;-65
2021/07/01 04:10:17;;;;;;;5.35;4.45;;;16.60;99.90;;;;;;5034957;28;20041;-63
2021/07/01 04:12:53;;;;;;;5.90;2.63;;;16.60;99.90;;;;;;5018476;28;20474;-66
2021/07/01 04:15:29;;;;;;;4.53;3.65;;;16.70;99.90;;;;;;5023646;28;20046;-64
2021/07/01 04:18:14;;;;;;;5.10;4.05;;;16.70;99.90;;;;;;5018823;28;20183;-66
2021/07/01 04:21:00;;;;;;;6.18;4.32;;;16.70;99.90;;;;;;5021182;28;20570;-66
2021/07/01 04:23:46;;;;;;;4.88;2.72;;;16.70;99.90;;;;;;5021055;28;20049;-63
2021/07/01 04:26:32;;;;;;;4.80;3.80;;;16.80;99.90;;;;;;5018816;28;20057;-65
2021/07/01 04:29:03;;;;;;;4.20;3.08;;;16.80;99.90;;;;;;5038863;28;20038;-63
2021/07/01 04:31:33;;;;;;;4.85;3.00;;;16.80;99.90;;;;;;5018316;28;20050;-67
2021/07/01 04:34:04;;;;;;;5.53;2.60;;;16.80;99.90;;;;;;5017297;28;20061;-64
2021/07/01 04:36:32;;;;;;;4.95;2.08;;;16.90;99.90;;;;;;5018532;28;20049;-65
2021/07/01 04:39:03;;;;;;;4.05;2.42;;;16.90;99.90;;;;;;5020190;28;20064;-64
2021/07/01 04:41:39;;;;;;;8.05;2.95;;;17.00;99.90;;;;;;5023393;28;20438;-63
2021/07/01 04:44:07;;;;;;;4.18;3.03;;;17.00;99.90;;;;;;5037521;28;20477;-64
2021/07/01 04:46:36;;;;;;;20.67;4.40;;;17.00;99.90;;;;;;5042016;28;20045;-64
2021/07/01 04:49:06;;;;;;;4.20;2.78;;;17.00;99.90;;;;;;5025282;28;20053;-63
2021/07/01 04:51:51;;;;;;;4.75;2.80;;;17.00;99.90;;;;;;5021999;28;20045;-64
2021/07/01 04:54:37;;;;;;;6.43;4.15;;;17.00;99.90;;;;;;5023016;28;20499;-67
2021/07/01 04:57:24;;;;;;;8.52;3.50;;;17.10;99.90;;;;;;5022774;28;20081;-64
2021/07/01 04:59:51;;;;;;;4.65;3.97;;;17.10;99.90;;;;;;5054912;28;20040;-63
2021/07/01 05:02:37;;;;;;;8.98;5.65;;;17.20;99.90;;;;;;5026668;28;20551;-63
2021/07/01 05:05:24;;;;;;;9.25;4.72;;;17.20;99.90;;;;;;5023225;28;20762;-64
2021/07/01 05:07:55;;;;;;;7.25;3.70;;;17.20;99.90;;;;;;5038491;28;20547;-64
2021/07/01 05:10:21;;;;;;;4.97;4.47;;;17.20;99.90;;;;;;5025499;28;20037;-67
2021/07/01 05:12:51;;;;;;;7.90;4.93;;;17.20;99.90;;;;;;5026117;28;20432;-65
2021/07/01 05:15:18;;;;;;;5.75;4.70;;;17.30;99.90;;;;;;5039861;28;20037;-63
2021/07/01 05:17:46;;;;;;;7.07;4.93;;;17.30;99.90;;;;;;5040277;28;20050;-65
2021/07/01 05:20:13;;;;;;;8.02;5.90;;;17.30;99.90;;;;;;5023902;28;20040;-63
2021/07/01 05:23:03;;;;;;;6.90;5.22;;;17.30;99.90;;;;;;5024560;28;20049;-64
2021/07/01 05:25:49;;;;;;;7.53;4.20;;;17.40;99.90;;;;;;5023272;28;20487;-64
2021/07/01 05:28:34;;;;;;;8.52;5.20;;;17.40;99.90;;;;;;5025021;28;20045;-65
2021/07/01 05:31:20;;;;;;;9.77;5.95;;;17.40;99.90;;;;;;5022442;28;20671;-63
2021/07/01 05:34:19;;;;;;;6.90;5.20;;;17.40;99.90;;;;;;5011667;28;20050;-64
2021/07/01 05:36:47;;;;;;;6.95;4.70;;;17.40;99.90;;;;;;5021332;28;20060;-67
2021/07/01 05:39:16;;;;;;;6.22;5.45;;;17.40;99.90;;;;;;5021438;28;20179;-63
2021/07/01 05:41:45;;;;;;;7.50;5.70;;;17.50;99.90;;;;;;5020759;28;20068;-64
2021/07/01 05:44:12;;;;;;;9.65;6.65;;;17.50;99.90;;;;;;5032522;28;20033;-64
2021/07/01 05:46:47;;;;;;;8.15;5.72;;;17.60;99.90;;;;;;5021733;28;20076;-64
2021/07/01 05:49:14;;;;;;;7.82;6.95;;;17.60;99.90;;;;;;5023482;28;20069;-65
2021/07/01 05:51:42;;;;;;;8.45;6.10;;;17.60;99.90;;;;;;5021681;28;20045;-65
2021/07/01 05:56:45;;;;;;;10.13;6.07;;;17.60;99.90;;;;;;5019054;28;20057;-65
2021/07/01 05:59:12;;;;;;;14.95;6.85;;;17.60;99.90;;;;;;5024644;28;20049;-64
2021/07/01 06:01:39;;;;;;;11.05;7.28;;;17.60;99.90;;;;;;5022395;28;20045;-65
2021/07/01 06:04:25;;;;;;;9.79;5.72;;;17.60;99.90;;;;;;2622731;28;10003978;-65
2021/07/01 06:07:32;;;;;;;8.25;5.50;;;17.60;99.90;;;;;;3981835;28;10001478;-65
2021/07/01 06:10:02;;;;;;;10.57;5.30;;;17.60;99.90;;;;;;5023512;28;20053;-64
2021/07/01 06:12:31;;;;;;;9.05;4.97;;;17.60;99.90;;;;;;5022464;28;20056;-64
2021/07/01 06:14:59;;;;;;;6.50;4.90;;;17.60;99.90;;;;;;5025740;28;20067;-65
2021/07/01 06:17:30;;;;;;;9.30;4.60;;;17.60;99.90;;;;;;5023150;28;20061;-64
2021/07/01 06:19:57;;;;;;;5.53;5.03;;;17.70;99.90;;;;;;5039080;28;20477;-65
2021/07/01 06:22:24;;;;;;;9.85;5.57;;;17.80;99.90;;;;;;5021674;28;20491;-67
2021/07/01 06:24:56;;;;;;;13.38;6.53;;;18.00;99.90;;;;;;5023752;28;20509;-64
2021/07/01 06:27:32;;;;;;;6.28;5.68;;;18.20;99.90;;;;;;5022778;28;20041;-65
2021/07/01 06:30:03;;;;;;;8.95;5.93;;;18.40;99.90;;;;;;5022604;28;20115;-66
2021/07/01 06:32:36;;;;;;;8.85;4.70;;;18.40;99.90;;;;;;5021719;28;20175;-68
2021/07/01 06:35:04;;;;;;;4.18;3.78;;;18.60;99.90;;;;;;5024141;28;20107;-64
2021/07/01 06:37:37;;;;;;;5.45;4.65;;;18.70;99.90;;;;;;5020765;28;20389;-65
2021/07/01 06:40:23;;;;;;;5.15;4.65;;;18.80;99.90;;;;;;5012217;28;20064;-63
2021/07/01 06:43:11;;;;;;;6.25;3.95;;;19.00;99.90;;;;;;5028890;28;20056;-65
2021/07/01 06:46:00;;;;;;;4.05;3.03;;;19.10;99.90;;;;;;4991180;28;20058;-64
2021/07/01 06:48:47;;;;;;;4.70;3.30;;;19.20;99.90;;;;;;5025128;28;20047;-63
2021/07/01 06:51:38;;;;;;;5.13;3.20;;;19.30;99.90;;;;;;5010904;28;20601;-64
2021/07/01 06:54:24;;;;;;;4.15;2.63;;;19.40;99.90;;;;;;5029548;28;20090;-64
2021/07/01 06:57:13;;;;;;;3.88;3.53;;;19.40;99.90;;;;;;5028307;28;20049;-64
2021/07/01 06:59:41;;;;;;;3.22;2.85;;;19.40;99.90;;;;;;5017535;28;20045;-65
2021/07/01 07:02:11;;;;;;;3.40;3.10;;;19.40;99.90;;;;;;5021242;28;20096;-65
2021/07/01 07:04:40;;;;;;;4.25;3.22;;;19.40;99.90;;;;;;5023161;28;20045;-63
2021/07/01 07:07:07;;;;;;;4.65;2.97;;;19.40;99.90;;;;;;5020460;28;20123;-65
2021/07/01 07:09:34;;;;;;;3.20;2.33;;;19.40;99.90;;;;;;5022246;28;20041;-65
2021/07/01 07:12:01;;;;;;;3.97;2.72;;;19.60;99.90;;;;;;5020887;28;20128;-65
2021/07/01 07:14:28;;;;;;;5.70;3.35;;;19.70;99.90;;;;;;5023902;28;20042;-64
2021/07/01 07:16:57;;;;;;;7.28;2.40;;;19.80;99.90;;;;;;5020588;28;20375;-66
2021/07/01 07:19:27;;;;;;;3.72;2.08;;;19.90;99.90;;;;;;5021827;28;20053;-63
2021/07/01 07:21:57;;;;;;;2.28;2.08;;;19.90;99.90;;;;;;5018450;28;20141;-68
2021/07/01 07:24:28;;;;;;;4.13;2.33;;;19.90;99.90;;;;;;5022320;28;20042;-64
2021/07/01 07:26:56;;;;;;;4.82;3.20;;;19.90;99.90;;;;;;5020669;28;20033;-65
2021/07/01 07:29:32;;;;;;;3.38;2.70;;;19.90;99.90;;;;;;5022401;28;20064;-65
2021/07/01 07:32:03;;;;;;;4.82;2.95;;;19.90;99.90;;;;;;5020070;28;20053;-65
2021/07/01 07:34:32;;;;;;;2.63;2.28;;;19.90;99.90;;;;;;5020297;28;20108;-66
2021/07/01 07:36:59;;;;;;;3.60;3.20;;;19.90;99.90;;;;;;5021295;28;20103;-64
2021/07/01 07:39:28;;;;;;;3.88;3.33;;;19.90;99.90;;;;;;5021561;28;20096;-63
2021/07/01 07:41:56;;;;;;;4.25;2.80;;;19.90;99.90;;;;;;5019794;28;20396;-65
2021/07/01 07:44:23;;;;;;;7.32;3.72;;;19.90;99.90;;;;;;5021150;28;20041;-65
2021/07/01 07:46:51;;;;;;;6.65;4.47;;;19.90;99.90;;;;;;5020966;28;20057;-64
2021/07/01 07:49:19;;;;;;;6.53;4.75;;;19.90;99.90;;;;;;5021096;28;20106;-66
2021/07/01 07:51:50;;;;;;;4.75;4.35;;;19.90;99.90;;;;;;5019006;28;20080;-63
2021/07/01 07:54:23;;;;;;;7.25;4.70;;;20.00;99.90;;;;;;5021730;28;20419;-67
2021/07/01 07:56:55;;;;;;;6.65;4.68;;;20.10;99.90;;;;;;5021662;28;20038;-64
2021/07/01 07:59:28;;;;;;;9.20;5.80;;;20.10;99.90;;;;;;5017420;28;20572;-64
2021/07/01 08:02:00;;;;;;;8.05;5.93;;;20.30;99.90;;;;;;5015976;28;20049;-68
2021/07/01 08:04:29;;;;;;;6.10;5.03;;;20.40;99.90;;;;;;5022732;28;20708;-65
2021/07/01 08:06:57;;;;;;;11.32;5.30;;;20.60;99.90;;;;;;5020937;28;20060;-64
2021/07/01 08:09:28;;;;;;;10.05;5.72;;;20.80;99.90;;;;;;5022096;28;20056;-64
2021/07/01 08:11:57;;;;;;;6.82;5.45;;;21.10;99.90;;;;;;5020958;28;20823;-64
2021/07/01 08:14:24;;;;;;;7.80;5.50;;;21.30;99.90;;;;;;5019714;28;20176;-65
2021/07/01 08:16:51;;;;;;;7.43;5.68;;;21.40;99.90;;;;;;5026439;28;20128;-64
2021/07/01 08:19:18;;;;;;;8.07;5.65;;;21.50;99.90;;;;;;5025197;28;20438;-64
2021/07/01 08:21:47;;;;;;;7.15;5.47;;;21.60;99.90;;;;;;5021663;28;20126;-64
2021/07/01 08:24:14;;;;;;;6.93;5.78;;;21.70;99.90;;;;;;5025650;28;20183;-64
2021/07/01 08:26:42;;;;;;;7.88;6.18;;;21.80;99.90;;;;;;5026744;28;20069;-64
2021/07/01 08:29:10;;;;;;;9.45;5.88;;;21.80;99.90;;;;;;5024527;28;20041;-67
2021/07/01 08:31:42;;;;;;;7.90;7.07;;;21.90;99.90;;;;;;5025775;28;20073;-66
2021/07/01 08:34:10;;;;;;;8.18;5.50;;;22.00;99.90;;;;;;5020979;28;20046;-65
2021/07/01 08:36:43;;;;;;;10.10;6.38;;;22.20;99.90;;;;;;5025395;28;20111;-68
2021/07/01 08:39:10;;;;;;;13.18;7.70;;;22.30;99.90;;;;;;5023164;28;20057;-64
2021/07/01 08:41:44;;;;;;;7.35;5.53;;;22.40;99.90;;;;;;5023670;28;20077;-65
2021/07/01 08:44:21;;;;;;;8.68;7.50;;;22.50;99.90;;;;;;5024239;28;20111;-65
2021/07/01 08:47:03;;;;;;;9.90;6.32;;;22.50;99.90;;;;;;5022593;28;20143;-64
2021/07/01 08:49:44;;;;;;;6.38;5.70;;;22.60;99.90;;;;;;5026430;28;20045;-64
2021/07/01 08:52:14;;;;;;;7.90;6.95;;;22.50;99.90;;;;;;5021536;28;20103;-65
2021/07/01 08:54:43;;;;;;;;;;;22.60;99.90;;;;;;5025909;28;20116;-65
2021/07/01 08:57:14;;;;;;;5.88;5.38;;;22.70;99.90;;;;;;5022977;28;19925;-64
2021/07/01 08:59:55;;;;;;;7.07;6.45;;;22.80;99.90;;;;;;5024634;28;20115;-66
2021/07/01 09:02:28;;;;;;;5.90;5.30;;;23.10;99.90;;;;;;5022821;28;20535;-64
2021/07/01 09:04:56;;;;;;;8.77;5.55;;;23.40;99.90;;;;;;5026070;28;20092;-69
2021/07/01 09:07:25;;;;;;;9.00;5.28;;;23.50;99.90;;;;;;5022630;28;20072;-64
2021/07/01 09:10:06;;;;;;;7.03;5.28;;;23.80;99.90;;;;;;5023758;28;20049;-65
2021/07/01 09:12:34;;;;;;;6.32;5.30;;;23.90;99.90;;;;;;5021415;28;20111;-67
2021/07/01 09:15:05;;;;;;;8.57;4.45;;;24.00;99.90;;;;;;5026189;28;20045;-65
2021/07/01 09:17:34;;;;;;;5.60;5.10;;;24.00;99.90;;;;;;5023718;28;20041;-65
2021/07/01 09:20:06;;;;;;;5.37;4.67;;;24.00;99.90;;;;;;5016847;28;20111;-65
2021/07/01 09:22:33;;;;;;;5.75;4.70;;;24.10;99.90;;;;;;5023475;28;20041;-68
2021/07/01 09:25:03;;;;;;;6.45;4.28;;;24.20;99.90;;;;;;5023773;28;20694;-65
2021/07/01 09:27:31;;;;;;;5.72;4.97;;;24.20;99.90;;;;;;5024317;28;20049;-66
2021/07/01 09:30:01;;;;;;;7.50;5.38;;;24.30;99.90;;;;;;5021082;28;20468;-70
2021/07/01 09:32:30;;;;;;;4.82;4.43;;;24.30;99.90;;;;;;5024995;28;20045;-64
2021/07/01 09:34:57;;;;;;;6.55;4.28;;;24.40;99.90;;;;;;5023725;28;20620;-64
2021/07/01 09:37:41;;;;;;;5.22;3.90;;;24.50;99.90;;;;;;5023839;28;20038;-65
2021/07/01 09:40:14;;;;;;;5.82;4.63;;;24.60;99.90;;;;;;5021965;28;20045;-66
2021/07/01 09:42:41;;;;;;;4.47;3.55;;;24.70;99.90;;;;;;5024083;28;20621;-68
2021/07/01 09:45:13;;;;;;;6.78;5.22;;;24.80;99.90;;;;;;5024960;28;20033;-63
2021/07/01 09:47:45;;;;;;;6.30;5.32;;;24.90;99.90;;;;;;5022912;28;20050;-64
2021/07/01 09:50:12;;;;;;;4.38;3.92;;;24.90;99.90;;;;;;5021368;28;20057;-66
2021/07/01 09:52:44;;;;;;;5.25;4.72;;;24.90;99.90;;;;;;5023154;28;20056;-64
2021/07/01 09:55:12;;;;;;;6.85;4.68;;;24.90;99.90;;;;;;5024435;28;20118;-65
2021/07/01 09:57:43;;;;;;;7.15;5.00;;;25.00;99.90;;;;;;5023265;28;20049;-66
2021/07/01 10:00:13;;;;;;;4.47;4.05;;;25.20;99.90;;;;;;5022746;28;20103;-67
2021/07/01 10:02:40;;;;;;;5.60;4.15;;;25.40;99.90;;;;;;5022464;28;20046;-66
2021/07/01 10:05:24;;;;;;;4.10;3.70;;;25.50;99.90;;;;;;5023644;28;20136;-65
2021/07/01 10:07:51;;;;;;;6.28;5.20;;;25.50;99.90;;;;;;5022188;28;20054;-64
2021/07/01 10:10:18;;;;;;;7.82;4.50;;;25.50;99.90;;;;;;5023678;28;20073;-65
2021/07/01 10:12:53;;;;;;;5.30;4.10;;;25.50;99.90;;;;;;5019181;28;20053;-65
2021/07/01 10:15:40;;;;;;;6.72;4.57;;;25.70;99.90;;;;;;5023961;28;20408;-67
2021/07/01 10:18:15;;;;;;;6.18;4.50;;;25.70;99.90;;;;;;5021228;28;20100;-67
2021/07/01 10:20:58;;;;;;;4.47;3.83;;;25.80;99.90;;;;;;5022417;28;20526;-66
2021/07/01 10:23:36;;;;;;;4.18;3.75;;;25.80;99.90;;;;;;5023824;28;20087;-65
2021/07/01 10:26:12;;;;;;;4.80;4.35;;;25.70;99.90;;;;;;5018927;28;20570;-64
2021/07/01 10:28:40;;;;;;;5.05;4.28;;;25.60;99.90;;;;;;5022201;28;20124;-66
2021/07/01 10:31:10;;;;;;;9.35;3.97;;;25.50;99.90;;;;;;5021875;28;20045;-69
2021/07/01 10:33:39;;;;;;;5.40;4.20;;;25.50;99.90;;;;;;5023851;28;20139;-67
2021/07/01 10:36:15;;;;;;;5.27;3.93;;;25.70;99.90;;;;;;5021067;28;20076;-64
2021/07/01 10:38:50;;;;;;;5.20;4.00;;;25.90;99.90;;;;;;5017034;28;20561;-64
2021/07/01 10:41:39;;;;;;;3.60;3.30;;;25.90;99.90;;;;;;5022735;28;20099;-67
2021/07/01 10:44:06;;;;;;;4.57;3.92;;;26.10;99.90;;;;;;5014316;28;20045;-65
2021/07/01 10:46:47;;;;;;;3.95;3.45;;;26.10;99.90;;;;;;5023053;28;20508;-64
2021/07/01 10:49:16;;;;;;;9.27;3.90;;;26.30;99.90;;;;;;5021862;28;20041;-65
2021/07/01 10:51:59;;;;;;;3.00;2.60;;;26.40;99.90;;;;;;5019138;28;21410;-65
2021/07/01 10:54:27;;;;;;;6.63;4.13;;;26.40;99.90;;;;;;5020742;28;20103;-65
2021/07/01 10:57:08;;;;;;;3.63;3.20;;;26.50;99.90;;;;;;5023103;28;20060;-68
2021/07/01 10:59:50;;;;;;;9.82;4.20;;;26.50;99.90;;;;;;5020875;28;20691;-65
2021/07/01 11:02:23;;;;;;;3.33;3.05;;;26.60;99.90;;;;;;5021644;28;20049;-65
2021/07/01 11:04:54;;;;;;;5.15;4.55;;;26.70;99.90;;;;;;5021944;28;20078;-66
2021/07/01 11:07:22;;;;;;;4.82;2.92;;;26.90;99.90;;;;;;5020841;28;20053;-65
2021/07/01 11:09:53;;;;;;;5.53;3.72;;;27.00;99.90;;;;;;5021613;28;20053;-66
2021/07/01 11:12:21;;;;;;;5.05;3.75;;;27.00;99.90;;;;;;5020794;28;20083;-69
2021/07/01 11:14:51;;;;;;;5.50;3.53;;;27.00;99.90;;;;;;5014981;28;20099;-66
2021/07/01 11:17:34;;;;;;;6.25;4.72;;;27.00;99.90;;;;;;5020057;28;20056;-64
2021/07/01 11:20:19;;;;;;;3.85;3.38;;;26.90;99.90;;;;;;5021487;28;20404;-64
2021/07/01 11:22:57;;;;;;;7.55;4.38;;;26.90;99.90;;;;;;5021185;28;20125;-65
2021/07/01 11:25:37;;;;;;;4.07;3.65;;;27.00;99.90;;;;;;5012926;28;20111;-66
2021/07/01 11:28:33;;;;;;;5.00;3.63;;;27.10;99.90;;;;;;5019486;28;20061;-69
2021/07/01 11:31:02;;;;;;;4.57;4.10;;;27.30;99.90;;;;;;5016840;28;20074;-66
2021/07/01 11:33:30;;;;;;;4.47;3.40;;;27.40;99.90;;;;;;5022883;28;20115;-66
2021/07/01 11:36:18;;;;;;;3.67;3.33;;;27.50;99.90;;;;;;5019294;28;20041;-65
2021/07/01 11:38:46;;;;;;;4.35;3.83;;;27.60;99.90;;;;;;5022859;28;20045;-66
2021/07/01 11:41:14;;;;;;;4.93;3.90;;;27.50;99.90;;;;;;5020779;28;20072;-67
2021/07/01 11:43:42;;;;;;;6.80;4.97;;;27.20;99.90;;;;;;5022642;28;20081;-70
2021/07/01 11:46:09;;;;;;;4.65;3.83;;;27.00;99.90;;;;;;5018911;28;20034;-67
2021/07/01 11:48:37;;;;;;;5.68;5.13;;;26.90;99.90;;;;;;5023012;28;20049;-65
2021/07/01 11:51:06;;;;;;;5.88;4.53;;;26.70;99.90;;;;;;5019247;28;20049;-67
2021/07/01 11:53:34;;;;;;;4.35;3.95;;;26.50;99.90;;;;;;5020827;28;20456;-66
2021/07/01 11:56:01;;;;;;;5.32;4.82;;;26.20;99.90;;;;;;5017466;28;20130;-67
2021/07/01 11:58:31;;;;;;;4.95;4.47;;;25.90;99.90;;;;;;5018854;28;20592;-65
2021/07/01 12:00:59;;;;;;;5.65;4.78;;;25.70;99.90;;;;;;5021425;28;20134;-65
2021/07/01 12:03:28;;;;;;;8.00;4.95;;;25.60;99.90;;;;;;5021821;28;20310;-65
2021/07/01 12:05:57;;;;;;;5.53;4.70;;;25.40;99.90;;;;;;5019268;28;20054;-64
2021/07/01 12:08:26;;;;;;;4.28;3.90;;;25.30;99.90;;;;;;5018617;28;20949;-66
2021/07/01 12:11:04;;;;;;;5.57;5.07;;;25.20;99.90;;;;;;5022651;28;20033;-65
2021/07/01 12:13:31;;;;;;;6.72;5.35;;;25.10;99.90;;;;;;5019223;28;20104;-65
2021/07/01 12:16:16;;;;;;;6.72;4.50;;;24.80;99.90;;;;;;5020095;28;20041;-67
2021/07/01 12:18:59;;;;;;;7.65;6.22;;;24.60;99.90;;;;;;5020248;28;20093;-65
2021/07/01 12:21:30;;;;;;;5.93;5.32;;;24.50;99.90;;;;;;5021366;28;20099;-66
2021/07/01 12:24:07;;;;;;;5.80;5.25;;;24.40;99.90;;;;;;5018815;28;20263;-64
2021/07/01 12:26:42;;;;;;;4.57;4.18;;;24.30;99.90;;;;;;5021699;28;20091;-65
2021/07/01 12:29:19;;;;;;;5.45;4.57;;;24.40;99.90;;;;;;5021794;28;20337;-69
2021/07/01 12:31:46;;;;;;;4.68;3.92;;;24.30;99.90;;;;;;5019679;28;20630;-66
2021/07/01 12:34:20;;;;;;;7.30;4.97;;;24.40;99.90;;;;;;5021416;28;20049;-66
2021/07/01 12:36:59;;;;;;;5.22;4.10;;;24.40;99.90;;;;;;5017152;28;20100;-69
2021/07/01 12:39:29;;;;;;;5.25;3.55;;;24.60;99.90;;;;;;5022860;28;20053;-69
2021/07/01 12:41:57;;;;;;;;;;;24.60;99.90;;;;;;5017058;28;20092;-65
2021/07/01 12:44:31;;;;;;;5.47;3.55;;;25.00;99.90;;;;;;5019003;28;19944;-66
2021/07/01 12:47:02;;;;;;;5.07;3.50;;;25.50;99.90;;;;;;5019550;28;20076;-66
2021/07/01 12:49:35;;;;;;;3.90;3.60;;;26.00;99.90;;;;;;5021997;28;20527;-65
2021/07/01 12:52:06;;;;;;;8.50;3.42;;;26.20;99.90;;;;;;5018719;28;20053;-66
2021/07/01 12:54:33;;;;;;;4.45;2.83;;;26.50;99.90;;;;;;5018771;28;20041;-66
2021/07/01 12:57:00;;;;;;;3.08;2.83;;;26.80;99.90;;;;;;5038240;28;20037;-66
2021/07/01 12:59:34;;;;;;;6.18;3.42;;;27.00;99.90;;;;;;5023762;28;20106;-65
2021/07/01 13:02:03;;;;;;;5.53;3.70;;;27.30;99.90;;;;;;5020221;28;21483;-69
2021/07/01 13:04:32;;;;;;;5.20;2.60;;;27.50;99.90;;;;;;5024507;28;20495;-66
2021/07/01 13:07:00;;;;;;;5.70;3.50;;;27.90;99.90;;;;;;5023313;28;20142;-66
2021/07/01 13:09:35;;;;;;;9.43;3.22;;;28.10;99.90;;;;;;5025965;28;20077;-66
2021/07/01 13:12:09;;;;;;;2.03;1.92;;;28.20;99.90;;;;;;5025120;28;20503;-67
2021/07/01 13:14:37;;;;;;;3.33;3.03;;;28.20;99.90;;;;;;5027295;28;20053;-67
2021/07/01 13:17:16;;;;;;;2.88;2.63;;;28.20;99.90;;;;;;5025259;28;20598;-66